Akron Canton Regional Airport
KCAK : now visible

Airfield :











YOU CAN JOIN US ON...

 
LOGIN :

Register | Disclaimer

   EN    FR    IT 

 









Legend :    VFR   Marginal VFR   IFR   Intensive IFR   Very Intensive IFR
Visi :
Ceiling :
>= 8 km
>= 3000ft
5 to 8 km
1000 to 3000 ft
1500m to 5 km
500 to 1000 ft
800 to 1500m
200 to 500 ft
< 800m
< 200 ft
Symbols :   Thunderstorms  Fog  Heavy snow  Heavy precipitations  Wind > 20 kt






- Airport Elevation : 1228 ft
- IATA code : CAK


KCAK - Akron Canton Regional

CURRENT METAR :
  • 070951Z 08005KT 4SM -RA BR SCT010 OVC028 06/04 RMK AO2 SLPNO P0010 T00610039 $

EXPIRED METARs :
  • 070851Z COR 06005KT 5SM -RA BR FEW017 BKN028 OVC036 06/04 A2990 RMK AO2 SLPNO P0009 60013 T00610039 $
  • 070820Z 07005KT 6SM -RA BR SCT028 OVC036 06/04 RMK AO2 P0003 T00610039 $
  • 070751Z COR 07003KT 9SM -RA FEW021 BKN028 OVC036 07/04 A2991 RMK AO2 SLPNO P0004 T00670039 $
  • 070651Z 04004KT 10SM -RA SCT021 OVC028 07/03 RMK AO2 SLPNO P0000 T00670033 $

TAF KCAK
Valid from the 07 at 06:00 until the 08 at 06:00 UTC


070536Z 0706/0806 36006KT P6SM -RA BKN040 OVC060
FM070900 VRB04KT P6SM OVC023
FM071000 VRB03KT 4SM SHRA BR OVC011
FM071100 36004KT 4SM BR VCSH OVC008
FM071500 33008KT P6SM BKN012
FM071800 32008KT P6SM SCT035
FM080500 26004KT P6SM -SHRA BKN026
KZOB FIR / North America



MET'MAP, your aeronautical weather chart ! - Copyright ORBIFLY December 2007 - Disclaimer

ORBIFLY MET'MAP TEAM :

Programming & Development : Alexandra Zaïnal
Concept & original design : Baudouin d'Aumeries
Assistance for programming : Marc-Olivier Méhu
Technical & hardware support : Manuel Goepfert

Contact : metmap@orbifly.com




SOURCES & CREDITS :

   NOAA       Earth
Advisory